04/07/2024

Boletín informativo HCV

PRETICOR núm. 6 elaborado por UT902, junio 2024. Meteorología > Observaciones > Humedad Combustible

25/06/2024

Espurna mayo 2024

Publicado el boletín Espurna núm. 180, correspondiente al mes de mayo de 2024. 
Incendios forestales > Espurna

16/04/2024

Prohibición quemas

Por resolución de 15 de abril de 2024 de la Generalitat Valenciana, quedan prohibidas las quemas del 15 de abril al 15 de octubre de 2024. Ver

08/02/2024

Infomes Post-incendio

Nuevo informe de la Unidad de Análisis de Incendios Forestales UT902 para La Vall d'Ebo 13/08/2022.
Incendios forestales > Informes post-incendio

Datos Meteorológicos

CS VLC ALI
Observatorio Temp H.R. Lluvia Vto. dir. Vel. Fecha
Aitana 25 53 0 23/07/2024 18:00
Aixorta 27 46 7 23/07/2024 18:00
Alto de Alcola 33 28 17 23/07/2024 18:00
Alto del Pinar 26 46 4 23/07/2024 18:00
Alto del Pino 25 51 14 23/07/2024 18:00
Alto Negro 32 32 11 23/07/2024 18:00
Ametler 28 39 20 23/07/2024 18:00
Benicadell 32 27 6 23/07/2024 18:00
Besori 31 36 20 23/07/2024 18:00
Boqueras 29 42 8 23/07/2024 18:00
Buena Leche 30 32 28 23/07/2024 18:00
Cabeçó d'or 23 57 13 23/07/2024 18:00
Cabezo 26 43 11 23/07/2024 18:00
Canalisses 34 30 4 23/07/2024 18:00
Canals 29 42 5 23/07/2024 18:00
Caperucho 30 34 17 23/07/2024 18:00
Caroche 30 32 17 23/07/2024 18:00
Casa del Doctor 40 21 0 23/07/2024 18:00
Castillico 33 24 8 23/07/2024 18:00
Cerro Carpio 34 23 10 23/07/2024 18:00
Cerro Simón 27 35 11 23/07/2024 18:00
Cocoll 28 42 11 23/07/2024 18:00
Coll de Rates 23 56 28 23/07/2024 18:00
Creu del Gelat 29 53 11 23/07/2024 18:00
Desert de les Palmes 24 67 14 23/07/2024 18:00
El Frontón 30 48 3 23/07/2024 18:00
El Gavilán 27 30 22 23/07/2024 18:00
El Picayo 29 44 10 23/07/2024 18:00
El Salviar 24 47 5 23/07/2024 18:00
El Turmell 24 56 12 23/07/2024 18:00
Feliciano 27 42 15 23/07/2024 18:00
Font Roja 26 40 5 23/07/2024 18:00
Fredes 26 56 10 23/07/2024 18:00
La Herrada 32 29 19 23/07/2024 18:00
La Hunde 31 21 24 23/07/2024 18:00
La Muela 29 47 4 23/07/2024 18:00
La Travina 32 28 8 23/07/2024 18:00
Las Hierbas 27 38 16 23/07/2024 18:00
Lloma Bernat 27 42 8 23/07/2024 18:00
Maigmó 25 46 21 23/07/2024 18:00
Mariola 28 38 8 23/07/2024 18:00
Miserat 30 40 5 23/07/2024 18:00
Moluengo 34 17 16 23/07/2024 18:00
Mondúver 28 38 6 23/07/2024 18:00
Monte Mayor 33 28 17 23/07/2024 18:00
Palmeral 33 27 23 23/07/2024 18:00
Penyagolosa 25 50 5 23/07/2024 18:00
Peñas de Amador 29 38 17 23/07/2024 18:00
Pico del Águila 27 42 7 23/07/2024 18:00
Pico del Remedio 32 34 16 23/07/2024 18:00
Pico Ropé 27 38 13 23/07/2024 18:00
Puntal Aljibe 27 40 6 23/07/2024 18:00
Reclot 25 50 21 23/07/2024 18:00
Reconco 25 43 7 23/07/2024 18:00
San José 28 42 26 23/07/2024 18:00
Santa Bárbara 24 44 30 23/07/2024 18:00
Santa Faz 29 52 10 23/07/2024 18:00
Serrella 28 43 9 23/07/2024 18:00
Sierra del Ave 28 34 25 23/07/2024 18:00
Sierra Martés 27 35 20 23/07/2024 18:00
Sierra Negrete 31 20 26 23/07/2024 18:00
Subarra 27 42 19 23/07/2024 18:00
Torreciprés 29 25 8 23/07/2024 18:00
Valdesierras 31 30 18 23/07/2024 18:00
Vallada 32 30 11 23/07/2024 18:00
Vallivana 26 52 26 23/07/2024 18:00
Municipio Festejo Fecha
Titaguas Noche de las Velas 27/07
Alfafara Festes Patronals en honor al Salvador, L´Aurora i Sant Roc 28/07
Bicorp Cena de las Patatas de Matanza 02/08
Serra San Roc y Mig any de San Roc 09/08-17/08
Tavernes de la Valldigna Porrat de Sant Llorenç 10/08-10/08
Tavernes de la Valldigna Fiestas Patronales 13/08-22/09
Olocau Fiestas de agosto. San Roque 14/08-14/08
Vall de Laguar (la) Sant Cosme i Sant Damiá - Mascletà nocturna 17/08-17/08
Ador Las fiestas Patronales (Festes en Honor de la Divina Aurora, San Josep, la Virgen de Loreto y Santísimo Cristo del Amparo) 21/08-21/08

Leyenda